< < Back
Terminal Aerodrome Forecast


Current Version              Previous Versions:   1  2  3  4  5  6  7  8  9  

Terminal Aerodrome Forecast

320
FTUS42 KTAE 271700
TAFDHN
TAF
KDHN 271720Z 2718/2818 33013G22KT P6SM SKC
     FM272300 33007KT P6SM SKC=

Latest METAR

646
SAUS70 KWBC 281800 RRC
MTRDHN
METAR KDHN 281753Z VRB03KT 10SM CLR 10/M04 A3039 RMK AO2 SLP293
T01001039 10106 21006 58022


USA.gov is the U.S. government's official web portal to all federal, state and local government web resources and services.